Sadri Usta-1 — YM8733 — position and weather

sailwx.info

Track history (hours):
 
Tides and Currents Weather Stations Pressure Air Temp Water Temp Dewpoint Dewpoint Depression Visibility Wind Speed Wind Dir Waves Ship Positions

Sadri Usta-1

Last reported at 2018-Apr-25 10:31 UTC. Time now 2018-Jun-23 04:45 UTC.
Position N 37°60' E 022°51'.
Warning: this ship's position is 58 days out of date.

Length 27 m.

Type: Pleasure craft. MMSI: 271041060.

Date/timePositionNaut miles runAvg speedWind from/ knotsBaromVisibWave heightAir tempDewpointWater temp
2018-Apr-25 10:31N 37°60' E 022°51'2 9.2
2018-Apr-25 10:18N 37°59' E 022°53'3 9.0
2018-Apr-25 09:58N 37°58' E 022°56'4 7.0
2018-Apr-25 09:22N 37°55' E 023°00'0 0.9
2018-Apr-25 08:58N 37°55' E 023°01'0 0.0
2018-Apr-25 08:28N 37°55' E 023°01'0 0.0
2018-Apr-25 07:58N 37°55' E 023°01'1 2.4
2018-Apr-25 07:30N 37°55' E 023°02'4 8.6
2018-Apr-25 07:00N 37°53' E 023°07'4 8.4
2018-Apr-25 06:30N 37°52' E 023°13'12 8.7
2018-Apr-25 05:07N 37°50' E 023°27'1 8.8
2018-Apr-25 05:00N 37°49' E 023°29'4 8.8
2018-Apr-25 04:30N 37°47' E 023°33'  
2018-Apr-21 16:49N 36°34' E 030°37'310.0
2018-Apr-21 16:28N 36°38' E 030°38'4 9.2
2018-Apr-21 16:00N 36°42' E 030°37'  
2018-Apr-17 16:49N 36°48' E 030°35'0 0.0
2018-Apr-17 16:28N 36°48' E 030°35'0 0.0
2018-Apr-17 15:55N 36°48' E 030°35'0 0.0
2018-Apr-17 15:25N 36°48' E 030°35'0 0.0
2018-Apr-17 14:58N 36°48' E 030°35'0 0.0
2018-Apr-17 14:28N 36°48' E 030°35'0 0.0
2018-Apr-17 13:58N 36°48' E 030°35'0 0.0
2018-Apr-17 13:28N 36°48' E 030°35'0 0.0
2018-Apr-17 12:07N 36°48' E 030°35'0 0.0
2018-Apr-17 11:58N 36°48' E 030°35'0 0.0
2018-Apr-17 11:16N 36°48' E 030°35'0 0.0
2018-Apr-17 10:46N 36°48' E 030°35'0 0.0
2018-Apr-17 08:43N 36°48' E 030°35'0 0.0
2018-Apr-17 08:28N 36°48' E 030°35'0 0.0
2018-Apr-17 07:07N 36°48' E 030°35'0 0.0
2018-Apr-17 06:55N 36°48' E 030°35'0 0.0
2018-Apr-17 05:49N 36°48' E 030°35'0 0.0
2018-Apr-17 05:25N 36°48' E 030°35'0 0.0
2018-Apr-17 04:28N 36°48' E 030°35'0 0.0
2018-Apr-17 03:55N 36°48' E 030°35'0 0.0
2018-Apr-17 03:28N 36°48' E 030°35'0 0.0
2018-Apr-17 02:55N 36°48' E 030°35'0 0.0
2018-Apr-17 02:25N 36°48' E 030°35'0 0.0
2018-Apr-17 01:55N 36°48' E 030°35'0 0.0
2018-Apr-17 00:49N 36°48' E 030°35'0 0.0
2018-Apr-17 00:07N 36°48' E 030°35'0 0.0
2018-Apr-16 23:37N 36°48' E 030°35'0 0.0
2018-Apr-16 23:28N 36°48' E 030°35'0 0.0
2018-Apr-16 22:58N 36°48' E 030°35'0 0.0
2018-Apr-16 22:19N 36°48' E 030°35'0 0.0
2018-Apr-16 20:13N 36°48' E 030°35'0 0.0
2018-Apr-16 19:55N 36°48' E 030°35'0 0.0
2018-Apr-16 19:25N 36°48' E 030°35'0 0.0
2018-Apr-16 18:43N 36°48' E 030°35'0 0.0
2018-Apr-16 18:28N 36°48' E 030°35'0 0.0
2018-Apr-16 07:25N 36°48' E 030°35'0 0.0
2018-Apr-16 06:58N 36°48' E 030°35'0 0.0
2018-Apr-16 06:28N 36°48' E 030°35'0 0.0
2018-Apr-16 05:58N 36°48' E 030°35'0 0.0
2018-Apr-16 05:28N 36°48' E 030°35'0 0.0
2018-Apr-16 04:58N 36°48' E 030°35'0 0.0
2018-Apr-16 04:28N 36°48' E 030°35'0 0.0
2018-Apr-16 03:55N 36°48' E 030°35'0 0.0
2018-Apr-16 03:28N 36°48' E 030°35'0 0.0
2018-Apr-16 02:55N 36°48' E 030°35'0 0.0
2018-Apr-16 02:19N 36°48' E 030°35'0 0.0
2018-Apr-16 01:55N 36°48' E 030°35'0 0.0
2018-Apr-16 01:25N 36°48' E 030°35'0 0.0
2018-Apr-16 00:58N 36°48' E 030°35'0 0.0
2018-Apr-16 00:28N 36°48' E 030°35'0 0.0
2018-Apr-15 23:55N 36°48' E 030°35'0 0.0
2018-Apr-15 23:28N 36°48' E 030°35'0 0.0
2018-Apr-15 22:58N 36°48' E 030°35'0 0.0
2018-Apr-15 22:22N 36°48' E 030°35'0 0.0
2018-Apr-15 21:58N 36°48' E 030°35'0 0.0
2018-Apr-15 21:28N 36°48' E 030°35'0 0.0
2018-Apr-15 20:58N 36°48' E 030°35'0 0.0
2018-Apr-15 20:28N 36°48' E 030°35'0 0.0
2018-Apr-15 19:55N 36°48' E 030°35'0 0.0
2018-Apr-15 19:28N 36°48' E 030°35'0 0.0
2018-Apr-15 18:58N 36°48' E 030°35'0 0.0
2018-Apr-15 18:28N 36°48' E 030°35'0 0.0
2018-Apr-15 17:55N 36°48' E 030°35'0 0.0
2018-Apr-15 17:28N 36°48' E 030°35'0 0.0
2018-Apr-15 16:44N 36°48' E 030°35'0 0.0
2018-Apr-15 16:29N 36°48' E 030°35'0 0.0
2018-Apr-15 15:49N 36°48' E 030°35'0 0.0
2018-Apr-15 15:25N 36°48' E 030°35'0 0.0
2018-Apr-15 14:55N 36°48' E 030°35'0 0.0
2018-Apr-15 14:28N 36°48' E 030°35'0 0.0
2018-Apr-15 13:55N 36°48' E 030°35'0 0.0
2018-Apr-15 13:28N 36°48' E 030°35'0 0.0
2018-Apr-15 12:59N 36°48' E 030°35'0 0.0
2018-Apr-15 12:26N 36°48' E 030°35'0 0.0
2018-Apr-15 11:58N 36°48' E 030°35'0 0.0
2018-Apr-15 11:25N 36°48' E 030°35'0 0.0
2018-Apr-15 10:44N 36°48' E 030°35'  
Track history (hours):
 
Tides and Currents Weather Stations Pressure Air Temp Water Temp Dewpoint Dewpoint Depression Visibility Wind Speed Wind Dir Waves Ship Positions

Sadri Usta-1

Last reported at 2018-Apr-25 10:31 UTC. Time now 2018-Jun-23 04:45 UTC.
Position N 37°60' E 022°51'.
Warning: this ship's position is 58 days out of date.

Length 27 m.

Type: Pleasure craft. MMSI: 271041060.

Date/timePositionNaut miles runAvg speedWind from/ knotsBaromVisibWave heightAir tempDewpointWater temp
2018-Apr-25 10:31N 37°60' E 022°51'2 9.2
2018-Apr-25 10:18N 37°59' E 022°53'3 9.0
2018-Apr-25 09:58N 37°58' E 022°56'4 7.0
2018-Apr-25 09:22N 37°55' E 023°00'0 0.9
2018-Apr-25 08:58N 37°55' E 023°01'0 0.0
2018-Apr-25 08:28N 37°55' E 023°01'0 0.0
2018-Apr-25 07:58N 37°55' E 023°01'1 2.4
2018-Apr-25 07:30N 37°55' E 023°02'4 8.6
2018-Apr-25 07:00N 37°53' E 023°07'4 8.4
2018-Apr-25 06:30N 37°52' E 023°13'12 8.7
2018-Apr-25 05:07N 37°50' E 023°27'1 8.8
2018-Apr-25 05:00N 37°49' E 023°29'4 8.8
2018-Apr-25 04:30N 37°47' E 023°33'  
2018-Apr-21 16:49N 36°34' E 030°37'310.0
2018-Apr-21 16:28N 36°38' E 030°38'4 9.2
2018-Apr-21 16:00N 36°42' E 030°37'  
2018-Apr-17 16:49N 36°48' E 030°35'0 0.0
2018-Apr-17 16:28N 36°48' E 030°35'0 0.0
2018-Apr-17 15:55N 36°48' E 030°35'0 0.0
2018-Apr-17 15:25N 36°48' E 030°35'0 0.0
2018-Apr-17 14:58N 36°48' E 030°35'0 0.0
2018-Apr-17 14:28N 36°48' E 030°35'0 0.0
2018-Apr-17 13:58N 36°48' E 030°35'0 0.0
2018-Apr-17 13:28N 36°48' E 030°35'0 0.0
2018-Apr-17 12:07N 36°48' E 030°35'0 0.0
2018-Apr-17 11:58N 36°48' E 030°35'0 0.0
2018-Apr-17 11:16N 36°48' E 030°35'0 0.0
2018-Apr-17 10:46N 36°48' E 030°35'0 0.0
2018-Apr-17 08:43N 36°48' E 030°35'0 0.0
2018-Apr-17 08:28N 36°48' E 030°35'0 0.0
2018-Apr-17 07:07N 36°48' E 030°35'0 0.0
2018-Apr-17 06:55N 36°48' E 030°35'0 0.0
2018-Apr-17 05:49N 36°48' E 030°35'0 0.0
2018-Apr-17 05:25N 36°48' E 030°35'0 0.0
2018-Apr-17 04:28N 36°48' E 030°35'0 0.0
2018-Apr-17 03:55N 36°48' E 030°35'0 0.0
2018-Apr-17 03:28N 36°48' E 030°35'0 0.0
2018-Apr-17 02:55N 36°48' E 030°35'0 0.0
2018-Apr-17 02:25N 36°48' E 030°35'0 0.0
2018-Apr-17 01:55N 36°48' E 030°35'0 0.0
2018-Apr-17 00:49N 36°48' E 030°35'0 0.0
2018-Apr-17 00:07N 36°48' E 030°35'0 0.0
2018-Apr-16 23:37N 36°48' E 030°35'0 0.0
2018-Apr-16 23:28N 36°48' E 030°35'0 0.0
2018-Apr-16 22:58N 36°48' E 030°35'0 0.0
2018-Apr-16 22:19N 36°48' E 030°35'0 0.0
2018-Apr-16 20:13N 36°48' E 030°35'0 0.0
2018-Apr-16 19:55N 36°48' E 030°35'0 0.0
2018-Apr-16 19:25N 36°48' E 030°35'0 0.0
2018-Apr-16 18:43N 36°48' E 030°35'0 0.0
2018-Apr-16 18:28N 36°48' E 030°35'0 0.0
2018-Apr-16 07:25N 36°48' E 030°35'0 0.0
2018-Apr-16 06:58N 36°48' E 030°35'0 0.0
2018-Apr-16 06:28N 36°48' E 030°35'0 0.0
2018-Apr-16 05:58N 36°48' E 030°35'0 0.0
2018-Apr-16 05:28N 36°48' E 030°35'0 0.0
2018-Apr-16 04:58N 36°48' E 030°35'0 0.0
2018-Apr-16 04:28N 36°48' E 030°35'0 0.0
2018-Apr-16 03:55N 36°48' E 030°35'0 0.0
2018-Apr-16 03:28N 36°48' E 030°35'0 0.0
2018-Apr-16 02:55N 36°48' E 030°35'0 0.0
2018-Apr-16 02:19N 36°48' E 030°35'0 0.0
2018-Apr-16 01:55N 36°48' E 030°35'0 0.0
2018-Apr-16 01:25N 36°48' E 030°35'0 0.0
2018-Apr-16 00:58N 36°48' E 030°35'0 0.0
2018-Apr-16 00:28N 36°48' E 030°35'0 0.0
2018-Apr-15 23:55N 36°48' E 030°35'0 0.0
2018-Apr-15 23:28N 36°48' E 030°35'0 0.0
2018-Apr-15 22:58N 36°48' E 030°35'0 0.0
2018-Apr-15 22:22N 36°48' E 030°35'0 0.0
2018-Apr-15 21:58N 36°48' E 030°35'0 0.0
2018-Apr-15 21:28N 36°48' E 030°35'0 0.0
2018-Apr-15 20:58N 36°48' E 030°35'0 0.0
2018-Apr-15 20:28N 36°48' E 030°35'0 0.0
2018-Apr-15 19:55N 36°48' E 030°35'0 0.0
2018-Apr-15 19:28N 36°48' E 030°35'0 0.0
2018-Apr-15 18:58N 36°48' E 030°35'0 0.0
2018-Apr-15 18:28N 36°48' E 030°35'0 0.0
2018-Apr-15 17:55N 36°48' E 030°35'0 0.0
2018-Apr-15 17:28N 36°48' E 030°35'0 0.0
2018-Apr-15 16:44N 36°48' E 030°35'0 0.0
2018-Apr-15 16:29N 36°48' E 030°35'0 0.0
2018-Apr-15 15:49N 36°48' E 030°35'0 0.0
2018-Apr-15 15:25N 36°48' E 030°35'0 0.0
2018-Apr-15 14:55N 36°48' E 030°35'0 0.0
2018-Apr-15 14:28N 36°48' E 030°35'0 0.0
2018-Apr-15 13:55N 36°48' E 030°35'0 0.0
2018-Apr-15 13:28N 36°48' E 030°35'0 0.0
2018-Apr-15 12:59N 36°48' E 030°35'0 0.0
2018-Apr-15 12:26N 36°48' E 030°35'0 0.0
2018-Apr-15 11:58N 36°48' E 030°35'0 0.0
2018-Apr-15 11:25N 36°48' E 030°35'0 0.0
2018-Apr-15 10:44N 36°48' E 030°35'  

Dump ship's entire track history